createdAt,value
2023-12-28T00:01:02.224Z,1.30
2023-12-28T00:03:50.934Z,1.30
2023-12-28T00:06:38.644Z,1.30
2023-12-28T00:09:26.341Z,1.20
2023-12-28T00:12:14.065Z,1.20
2023-12-28T00:15:01.841Z,1.10
2023-12-28T00:17:49.541Z,1.10
2023-12-28T00:20:37.241Z,1.00
2023-12-28T00:23:24.931Z,1.00
2023-12-28T00:26:12.526Z,0.90
2023-12-28T00:29:00.162Z,0.90
2023-12-28T00:31:47.863Z,0.90
2023-12-28T00:34:35.646Z,0.90
2023-12-28T00:37:23.456Z,0.80
2023-12-28T00:40:12.058Z,0.80
2023-12-28T00:42:59.693Z,0.80
2023-12-28T00:45:47.375Z,0.70
2023-12-28T00:48:35.104Z,0.70
2023-12-28T00:51:22.931Z,0.60
2023-12-28T00:54:11.062Z,0.50
2023-12-28T00:56:58.633Z,0.50
2023-12-28T00:59:46.238Z,0.40
2023-12-28T01:02:33.807Z,0.40
2023-12-28T01:05:22.696Z,0.40
2023-12-28T01:08:10.373Z,0.40
2023-12-28T01:10:58.021Z,0.40
2023-12-28T01:13:45.638Z,0.40
2023-12-28T01:16:33.561Z,0.50
2023-12-28T01:19:21.346Z,0.50
2023-12-28T01:22:08.987Z,0.40
2023-12-28T01:24:56.815Z,0.40
2023-12-28T01:27:44.412Z,0.40
2023-12-28T01:30:32.387Z,0.40
2023-12-28T01:33:20.139Z,0.40
2023-12-28T01:36:22.837Z,0.30
2023-12-28T01:39:12.274Z,0.30
2023-12-28T01:42:00.220Z,0.20
2023-12-28T01:44:48.003Z,0.20
2023-12-28T01:47:36.726Z,0.20
2023-12-28T01:50:27.418Z,0.20
2023-12-28T01:53:16.103Z,0.10
2023-12-28T01:56:04.723Z,0.20
2023-12-28T01:58:54.059Z,0.20
2023-12-28T02:01:43.150Z,0.20
2023-12-28T02:04:31.667Z,0.20
2023-12-28T02:07:22.201Z,0.20
2023-12-28T02:10:09.962Z,0.20
2023-12-28T02:12:57.795Z,0.10
2023-12-28T02:15:52.652Z,0.10
2023-12-28T02:18:51.230Z,0.10
2023-12-28T02:21:39.238Z,0.10
2023-12-28T02:24:26.944Z,0.10
2023-12-28T02:27:14.568Z,0.00
2023-12-28T02:30:02.760Z,0.10
2023-12-28T02:33:12.169Z,0.10
2023-12-28T02:36:08.018Z,0.10
2023-12-28T02:39:00.853Z,0.10
2023-12-28T02:41:48.684Z,0.10
2023-12-28T02:44:36.324Z,0.20
2023-12-28T02:47:23.954Z,0.20
2023-12-28T02:50:11.712Z,0.30
2023-12-28T02:53:00.536Z,0.30
2023-12-28T02:55:48.108Z,0.30
2023-12-28T02:58:36.155Z,0.30
2023-12-28T03:01:23.875Z,0.30
2023-12-28T03:04:11.703Z,0.30
2023-12-28T03:06:59.284Z,0.30
2023-12-28T03:09:46.939Z,0.30
2023-12-28T03:12:34.709Z,0.30
2023-12-28T03:15:22.444Z,0.20
2023-12-28T03:18:10.085Z,0.30
2023-12-28T03:20:58.129Z,0.20
2023-12-28T03:23:45.731Z,0.20
2023-12-28T03:26:33.511Z,0.10
2023-12-28T03:29:21.871Z,0.10
2023-12-28T03:32:09.453Z,0.00
2023-12-28T03:34:57.022Z,0.00
2023-12-28T03:37:44.611Z,0.00
2023-12-28T03:40:32.251Z,0.00
2023-12-28T03:43:19.903Z,0.00
2023-12-28T03:46:07.501Z,-0.10
2023-12-28T03:48:55.741Z,0.00
2023-12-28T03:51:43.521Z,0.00
2023-12-28T03:54:31.157Z,-0.10
2023-12-28T03:57:18.821Z,-0.10
2023-12-28T04:00:07.608Z,-0.10
2023-12-28T04:02:55.282Z,0.00
2023-12-28T04:05:44.446Z,0.00
2023-12-28T04:08:32.195Z,-0.10
2023-12-28T04:11:20.090Z,-0.20
2023-12-28T04:14:07.992Z,-0.20
2023-12-28T04:16:55.777Z,-0.30
2023-12-28T04:19:43.470Z,-0.40
2023-12-28T04:22:31.030Z,-0.40
2023-12-28T04:25:18.684Z,-0.40
2023-12-28T04:28:07.569Z,-0.40
2023-12-28T04:30:55.222Z,-0.40
2023-12-28T04:33:43.002Z,-0.40
2023-12-28T04:36:30.737Z,-0.40
2023-12-28T04:39:19.071Z,-0.40
2023-12-28T04:42:07.079Z,-0.40
2023-12-28T04:44:54.645Z,-0.30
2023-12-28T04:47:42.716Z,-0.30
2023-12-28T04:50:31.209Z,-0.30
2023-12-28T04:53:18.809Z,-0.30
2023-12-28T04:56:07.381Z,-0.30
2023-12-28T04:58:54.890Z,-0.30
2023-12-28T05:01:46.569Z,-0.10
2023-12-28T05:04:37.994Z,-0.10
2023-12-28T05:07:25.679Z,0.00
2023-12-28T05:10:13.325Z,0.00
2023-12-28T05:13:02.136Z,0.00
2023-12-28T05:15:50.339Z,0.10
2023-12-28T05:18:38.631Z,0.10
2023-12-28T05:21:26.412Z,0.20
2023-12-28T05:24:14.483Z,0.20
2023-12-28T05:27:02.139Z,0.10
2023-12-28T05:29:49.752Z,0.10
2023-12-28T05:32:37.523Z,0.10
2023-12-28T05:35:25.130Z,0.10
2023-12-28T05:38:12.905Z,0.20
2023-12-28T05:41:01.206Z,0.30
2023-12-28T05:43:48.924Z,0.50
2023-12-28T05:46:36.550Z,0.50
2023-12-28T05:49:24.294Z,0.60
2023-12-28T05:52:12.025Z,0.60
2023-12-28T05:54:59.797Z,0.70
2023-12-28T05:57:47.420Z,0.70
2023-12-28T06:00:35.121Z,0.80
2023-12-28T06:03:22.865Z,0.80
2023-12-28T06:06:10.548Z,0.80
2023-12-28T06:08:59.559Z,0.90
2023-12-28T06:11:47.164Z,0.90
2023-12-28T06:14:34.829Z,1.00
2023-12-28T06:17:22.773Z,1.00
2023-12-28T06:20:11.695Z,1.10
2023-12-28T06:22:59.438Z,1.10
2023-12-28T06:25:47.081Z,1.00
2023-12-28T06:28:35.183Z,1.00
2023-12-28T06:31:22.845Z,1.10
2023-12-28T06:34:10.579Z,1.00
2023-12-28T06:36:58.224Z,1.10
2023-12-28T06:39:45.890Z,1.10
2023-12-28T06:42:33.507Z,1.10
2023-12-28T06:45:21.309Z,1.10
2023-12-28T06:48:09.056Z,1.10
2023-12-28T06:50:57.690Z,1.10
2023-12-28T06:53:46.067Z,1.10
2023-12-28T06:56:33.670Z,1.10
2023-12-28T06:59:21.193Z,1.10
2023-12-28T07:02:08.789Z,1.20
2023-12-28T07:04:56.384Z,1.10
2023-12-28T07:07:43.915Z,1.10
2023-12-28T07:10:31.567Z,1.10
2023-12-28T07:13:19.169Z,1.10
2023-12-28T07:16:09.015Z,1.00
2023-12-28T07:18:56.891Z,1.00
2023-12-28T07:21:44.623Z,1.00
2023-12-28T07:24:32.278Z,1.00
2023-12-28T07:27:19.949Z,1.00
2023-12-28T07:30:08.727Z,0.90
2023-12-28T07:32:56.405Z,0.90
2023-12-28T07:35:44.006Z,0.90
2023-12-28T07:38:32.299Z,0.90
2023-12-28T07:41:20.061Z,0.90
2023-12-28T07:44:07.756Z,0.90
2023-12-28T07:46:55.761Z,0.90
2023-12-28T07:49:44.043Z,0.90
2023-12-28T07:52:43.029Z,0.90
2023-12-28T07:55:31.423Z,0.90
2023-12-28T07:58:24.049Z,0.90
2023-12-28T08:01:21.731Z,0.90
2023-12-28T08:04:15.748Z,1.00
2023-12-28T08:07:03.555Z,1.10
2023-12-28T08:12:56.246Z,1.10
2023-12-28T08:15:44.942Z,1.20
2023-12-28T08:18:36.237Z,1.30
2023-12-28T08:21:24.269Z,1.20
2023-12-28T08:27:14.771Z,1.30
2023-12-28T08:30:16.030Z,1.20
2023-12-28T08:33:04.589Z,1.30
2023-12-28T08:35:52.559Z,1.30
2023-12-28T08:38:46.262Z,1.20
2023-12-28T08:41:34.413Z,1.20
2023-12-28T08:44:35.144Z,1.30
2023-12-28T08:47:29.400Z,1.30
2023-12-28T08:50:35.174Z,1.30
2023-12-28T08:53:22.880Z,1.20
2023-12-28T08:56:25.468Z,1.30
2023-12-28T08:59:13.476Z,1.30
2023-12-28T09:02:02.940Z,1.30
2023-12-28T09:04:50.676Z,1.40
2023-12-28T09:07:44.302Z,1.50
2023-12-28T09:10:32.866Z,1.60
2023-12-28T09:13:21.607Z,1.60
2023-12-28T09:16:22.303Z,1.60
2023-12-28T09:19:13.554Z,1.70
2023-12-28T09:22:06.605Z,1.70
2023-12-28T09:24:57.171Z,1.70
2023-12-28T09:27:55.584Z,1.80
2023-12-28T09:30:49.316Z,1.80
2023-12-28T09:34:07.187Z,1.80
2023-12-28T09:37:02.684Z,1.90
2023-12-28T09:40:20.949Z,1.90
2023-12-28T09:43:38.611Z,2.00
2023-12-28T09:46:34.460Z,1.90
2023-12-28T09:49:27.702Z,2.00
2023-12-28T09:52:15.556Z,2.00
2023-12-28T09:55:04.027Z,2.10
2023-12-28T09:58:04.868Z,2.10
2023-12-28T10:00:53.623Z,2.10
2023-12-28T10:03:41.443Z,2.20
2023-12-28T10:06:39.029Z,2.20
2023-12-28T10:09:36.236Z,2.20
2023-12-28T10:12:34.889Z,2.20
2023-12-28T10:15:32.792Z,2.20
2023-12-28T10:18:21.081Z,2.10
2023-12-28T10:21:08.979Z,2.20
2023-12-28T10:24:06.337Z,2.40
2023-12-28T10:27:01.604Z,2.60
2023-12-28T10:29:58.907Z,2.70
2023-12-28T10:32:49.913Z,2.70
2023-12-28T10:35:39.028Z,2.80
2023-12-28T10:38:33.736Z,2.80
2023-12-28T10:41:27.985Z,2.90
2023-12-28T10:44:29.975Z,3.00
2023-12-28T10:47:24.277Z,3.00
2023-12-28T10:50:17.728Z,3.10
2023-12-28T10:54:05.116Z,3.30
2023-12-28T10:57:15.185Z,3.40
2023-12-28T11:00:21.732Z,3.70
2023-12-28T11:03:16.727Z,3.80
2023-12-28T11:06:10.713Z,3.70
2023-12-28T11:09:05.567Z,3.50
2023-12-28T11:12:00.349Z,3.40
2023-12-28T11:15:03.184Z,3.50
2023-12-28T11:18:05.035Z,3.70
2023-12-28T11:24:20.941Z,3.60
2023-12-28T11:27:11.568Z,3.60
2023-12-28T11:30:06.221Z,3.70
2023-12-28T11:33:01.983Z,3.80
2023-12-28T11:35:50.242Z,3.90
2023-12-28T11:42:02.221Z,4.20
2023-12-28T11:45:10.769Z,4.40
2023-12-28T11:48:04.339Z,4.50
2023-12-28T11:51:02.995Z,4.70
2023-12-28T11:54:12.662Z,4.70
2023-12-28T11:57:03.495Z,4.80
2023-12-28T12:00:00.333Z,5.00
2023-12-28T12:02:48.114Z,5.20
2023-12-28T12:05:35.830Z,5.20
2023-12-28T12:08:23.448Z,5.10
2023-12-28T12:11:14.884Z,5.20
2023-12-28T12:14:05.016Z,5.40
2023-12-28T12:16:57.103Z,5.60
2023-12-28T12:23:02.645Z,5.80
2023-12-28T12:25:53.488Z,5.90
2023-12-28T12:28:53.724Z,5.90
2023-12-28T12:31:43.244Z,5.90
2023-12-28T12:34:31.223Z,6.00
2023-12-28T12:37:31.843Z,6.00
2023-12-28T12:40:25.325Z,5.90
2023-12-28T12:43:13.165Z,5.70
2023-12-28T12:46:05.075Z,5.70
2023-12-28T12:48:58.830Z,5.70
2023-12-28T12:51:53.909Z,5.80
2023-12-28T12:54:47.826Z,5.70
2023-12-28T12:57:36.497Z,5.70
2023-12-28T13:00:36.401Z,5.70
2023-12-28T13:03:29.341Z,5.60
2023-12-28T13:06:17.750Z,5.50
2023-12-28T13:09:08.119Z,5.60
2023-12-28T13:12:03.570Z,5.80
2023-12-28T13:14:52.698Z,5.80
2023-12-28T13:17:44.760Z,5.80
2023-12-28T13:20:32.458Z,5.70
2023-12-28T13:23:43.406Z,5.60
2023-12-28T13:26:31.097Z,5.60
2023-12-28T13:29:22.553Z,5.60
2023-12-28T13:32:10.848Z,5.60
2023-12-28T13:35:08.195Z,5.60
2023-12-28T13:37:56.204Z,5.70
2023-12-28T13:40:44.032Z,5.70
2023-12-28T13:43:32.215Z,5.90
2023-12-28T13:46:22.547Z,5.80
2023-12-28T13:49:10.454Z,5.60
2023-12-28T13:51:59.237Z,5.60
2023-12-28T13:54:47.080Z,5.50
2023-12-28T13:57:34.817Z,5.40
2023-12-28T14:00:22.469Z,5.30
2023-12-28T14:03:10.212Z,5.20
2023-12-28T14:06:03.581Z,5.20
2023-12-28T14:08:54.092Z,5.10
2023-12-28T14:11:44.822Z,5.00
2023-12-28T14:14:32.722Z,4.80
2023-12-28T14:17:23.261Z,4.60
2023-12-28T14:20:14.262Z,4.50
2023-12-28T14:23:02.316Z,4.40
2023-12-28T14:25:55.210Z,4.30
2023-12-28T14:28:59.025Z,4.30
2023-12-28T14:31:51.318Z,4.20
2023-12-28T14:34:42.919Z,4.20
2023-12-28T14:37:36.731Z,4.20
2023-12-28T14:40:27.637Z,4.10
2023-12-28T14:43:15.303Z,4.20
2023-12-28T14:46:09.802Z,4.20
2023-12-28T14:48:59.152Z,4.30
2023-12-28T14:51:52.383Z,4.40
2023-12-28T14:54:39.995Z,4.40
2023-12-28T14:57:33.451Z,4.30
2023-12-28T15:00:21.919Z,4.40
2023-12-28T15:03:16.695Z,4.40
2023-12-28T15:06:05.669Z,4.40
2023-12-28T15:08:53.345Z,4.40
2023-12-28T15:11:48.190Z,4.30
2023-12-28T15:14:40.963Z,4.30
2023-12-28T15:17:35.596Z,4.30
2023-12-28T15:20:34.313Z,4.30
2023-12-28T15:23:26.667Z,4.30
2023-12-28T15:26:14.953Z,4.30
2023-12-28T15:29:10.941Z,4.30
2023-12-28T15:31:58.552Z,4.30
2023-12-28T15:34:46.156Z,4.20
2023-12-28T15:37:37.382Z,4.20
2023-12-28T15:40:24.974Z,4.20
2023-12-28T15:43:12.618Z,4.20
2023-12-28T15:46:06.159Z,4.20
2023-12-28T15:48:57.240Z,4.20
2023-12-28T15:51:54.005Z,4.20
2023-12-28T15:54:54.170Z,4.20
2023-12-28T15:57:47.685Z,4.20
2023-12-28T16:00:35.635Z,4.20
2023-12-28T16:03:30.131Z,4.10
2023-12-28T16:06:18.999Z,4.10
2023-12-28T16:09:10.079Z,4.10
2023-12-28T16:12:09.500Z,4.00
2023-12-28T16:15:12.235Z,3.90
2023-12-28T16:18:04.997Z,3.90
2023-12-28T16:20:53.952Z,3.90
2023-12-28T16:23:42.005Z,3.90
2023-12-28T16:26:32.378Z,3.80
2023-12-28T16:29:29.240Z,3.80
2023-12-28T16:32:17.112Z,3.80
2023-12-28T16:35:05.484Z,3.70
2023-12-28T16:37:53.790Z,3.70
2023-12-28T16:41:05.197Z,3.60
2023-12-28T16:43:54.006Z,3.60
2023-12-28T16:46:48.423Z,3.60
2023-12-28T16:49:36.303Z,3.50
2023-12-28T16:52:27.493Z,3.60
2023-12-28T16:55:15.681Z,3.40
2023-12-28T16:58:07.334Z,3.40
2023-12-28T17:01:03.088Z,3.30
2023-12-28T17:03:51.361Z,3.30
2023-12-28T17:06:42.883Z,3.20
2023-12-28T17:09:31.366Z,3.20
2023-12-28T17:12:47.494Z,3.10
2023-12-28T17:15:39.024Z,3.10
2023-12-28T17:18:27.266Z,3.00
2023-12-28T17:21:25.831Z,3.00
2023-12-28T17:24:21.746Z,2.90
2023-12-28T17:27:18.146Z,2.90
2023-12-28T17:30:08.146Z,2.90
2023-12-28T17:33:01.057Z,2.90
2023-12-28T17:35:50.087Z,2.80
2023-12-28T17:38:42.848Z,2.80
2023-12-28T17:41:34.541Z,2.70
2023-12-28T17:44:32.336Z,2.70
2023-12-28T17:47:37.412Z,2.70
2023-12-28T17:50:37.989Z,2.70
2023-12-28T17:53:36.921Z,2.70
2023-12-28T17:56:35.045Z,2.60
2023-12-28T17:59:44.056Z,2.50
2023-12-28T18:02:35.424Z,2.50
2023-12-28T18:05:23.518Z,2.50
2023-12-28T18:08:14.584Z,2.50
2023-12-28T18:11:05.551Z,2.50
2023-12-28T18:14:19.036Z,2.40
2023-12-28T18:17:08.025Z,2.40
2023-12-28T18:20:06.693Z,2.40
2023-12-28T18:22:54.312Z,2.40
2023-12-28T18:25:44.958Z,2.40
2023-12-28T18:28:36.932Z,2.40
2023-12-28T18:31:27.877Z,2.30
2023-12-28T18:34:16.333Z,2.30
2023-12-28T18:37:05.529Z,2.30
2023-12-28T18:39:55.906Z,2.30
2023-12-28T18:42:49.115Z,2.30
2023-12-28T18:45:39.468Z,2.40
2023-12-28T18:48:33.111Z,2.40
2023-12-28T18:51:20.942Z,2.40
2023-12-28T18:54:15.158Z,2.50
2023-12-28T18:57:06.877Z,2.50
2023-12-28T18:59:55.153Z,2.50
2023-12-28T19:02:56.646Z,2.70
2023-12-28T19:05:48.573Z,2.70
2023-12-28T19:08:37.079Z,2.70
2023-12-28T19:11:27.967Z,2.80
2023-12-28T19:14:17.433Z,2.80
2023-12-28T19:17:07.497Z,2.80
2023-12-28T19:23:05.712Z,2.90
2023-12-28T19:25:56.758Z,2.90
2023-12-28T19:28:55.942Z,2.90
2023-12-28T19:31:52.926Z,2.90
2023-12-28T19:34:43.401Z,2.90
2023-12-28T19:38:06.763Z,3.00
2023-12-28T19:40:55.147Z,3.00
2023-12-28T19:43:52.572Z,3.10
2023-12-28T19:46:41.567Z,3.10
2023-12-28T19:49:29.633Z,3.20
2023-12-28T19:52:20.166Z,3.20
2023-12-28T19:55:08.296Z,3.10
2023-12-28T19:57:57.574Z,3.00
2023-12-28T20:00:45.759Z,3.00
2023-12-28T20:03:33.538Z,3.00
2023-12-28T20:06:21.304Z,3.00
2023-12-28T20:09:10.057Z,3.00
2023-12-28T20:11:57.711Z,3.00
2023-12-28T20:14:46.130Z,3.00
2023-12-28T20:17:34.173Z,3.00
2023-12-28T20:20:22.250Z,3.00
2023-12-28T20:23:10.110Z,3.00
2023-12-28T20:25:57.661Z,3.10
2023-12-28T20:28:48.351Z,3.20
2023-12-28T20:31:36.243Z,3.10
2023-12-28T20:34:24.663Z,3.20
2023-12-28T20:37:12.343Z,3.10
2023-12-28T20:39:59.977Z,3.10
2023-12-28T20:42:48.018Z,3.10
2023-12-28T20:45:36.058Z,3.10
2023-12-28T20:48:23.838Z,3.20
2023-12-28T20:51:11.519Z,3.20
2023-12-28T20:53:59.219Z,3.10
2023-12-28T20:56:47.509Z,3.20
2023-12-28T20:59:39.243Z,3.20
2023-12-28T21:02:27.242Z,3.20
2023-12-28T21:05:15.025Z,3.20
2023-12-28T21:08:02.800Z,3.20
2023-12-28T21:10:55.892Z,3.20
2023-12-28T21:13:43.516Z,3.20
2023-12-28T21:16:31.329Z,3.10
2023-12-28T21:19:19.320Z,3.10
2023-12-28T21:22:06.883Z,3.00
2023-12-28T21:24:54.472Z,3.00
2023-12-28T21:27:42.060Z,2.90
2023-12-28T21:30:29.873Z,2.90
2023-12-28T21:33:17.898Z,2.90
2023-12-28T21:36:06.266Z,2.80
2023-12-28T21:38:53.810Z,2.70
2023-12-28T21:41:41.385Z,2.60
2023-12-28T21:44:28.919Z,2.60
2023-12-28T21:47:16.509Z,2.50
2023-12-28T21:50:05.342Z,2.50
2023-12-28T21:52:55.672Z,2.40
2023-12-28T21:55:43.236Z,2.40
2023-12-28T21:58:30.765Z,2.40
2023-12-28T22:01:18.986Z,2.40
2023-12-28T22:04:06.708Z,2.50
2023-12-28T22:06:54.396Z,2.40
2023-12-28T22:09:42.012Z,2.40
2023-12-28T22:12:30.363Z,2.40
2023-12-28T22:15:18.110Z,2.40
2023-12-28T22:18:07.752Z,2.40
2023-12-28T22:20:55.512Z,2.50
2023-12-28T22:23:45.103Z,2.50
2023-12-28T22:26:33.906Z,2.50
2023-12-28T22:29:21.678Z,2.50
2023-12-28T22:32:10.259Z,2.50
2023-12-28T22:34:59.272Z,2.50
2023-12-28T22:37:46.911Z,2.60
2023-12-28T22:40:34.747Z,2.60
2023-12-28T22:43:22.577Z,2.60
2023-12-28T22:46:13.452Z,2.60
2023-12-28T22:49:01.972Z,2.60
2023-12-28T22:51:50.350Z,2.50
2023-12-28T22:54:38.721Z,2.50
2023-12-28T22:57:26.423Z,2.50
2023-12-28T23:00:21.220Z,2.40
2023-12-28T23:03:09.806Z,2.40
2023-12-28T23:05:57.432Z,2.30
2023-12-28T23:08:45.141Z,2.20
2023-12-28T23:11:32.729Z,2.20
2023-12-28T23:14:20.395Z,2.20
2023-12-28T23:17:08.023Z,2.10
2023-12-28T23:19:55.671Z,2.20
2023-12-28T23:22:45.656Z,2.20
2023-12-28T23:25:33.256Z,2.20
2023-12-28T23:28:20.909Z,2.20
2023-12-28T23:31:08.714Z,2.30
2023-12-28T23:33:56.597Z,2.30
2023-12-28T23:36:44.406Z,2.40
2023-12-28T23:39:32.009Z,2.40
2023-12-28T23:42:19.606Z,2.50
2023-12-28T23:45:07.672Z,2.60
2023-12-28T23:47:55.359Z,2.60
2023-12-28T23:50:43.389Z,2.60
2023-12-28T23:53:31.133Z,2.70
2023-12-28T23:56:22.629Z,2.70
2023-12-28T23:59:10.291Z,2.80
